createdAt,value
2018-09-02T00:00:55.886Z,0
2018-09-02T00:01:57.332Z,0
2018-09-02T00:02:58.741Z,0
2018-09-02T00:04:00.134Z,0
2018-09-02T00:05:01.630Z,0
2018-09-02T00:06:03.130Z,0
2018-09-02T00:07:04.546Z,0
2018-09-02T00:08:05.969Z,0
2018-09-02T00:09:07.428Z,0
2018-09-02T00:10:08.869Z,0
2018-09-02T00:11:10.287Z,0
2018-09-02T00:12:11.690Z,0
2018-09-02T00:13:13.095Z,0
2018-09-02T00:14:14.502Z,0
2018-09-02T00:15:15.944Z,0
2018-09-02T00:16:17.382Z,0
2018-09-02T00:17:18.780Z,0
2018-09-02T00:18:20.205Z,0
2018-09-02T00:19:21.593Z,0
2018-09-02T00:20:23.102Z,0
2018-09-02T00:21:24.486Z,0
2018-09-02T00:22:25.926Z,0
2018-09-02T00:23:27.393Z,0
2018-09-02T00:24:28.835Z,0
2018-09-02T00:25:30.306Z,0
2018-09-02T00:26:31.732Z,0
2018-09-02T00:27:33.128Z,0
2018-09-02T00:28:34.581Z,0
2018-09-02T00:29:35.982Z,0
2018-09-02T00:30:37.466Z,0
2018-09-02T00:31:38.887Z,0
2018-09-02T00:32:40.286Z,0
2018-09-02T00:33:41.807Z,0
2018-09-02T00:34:43.219Z,0
2018-09-02T00:35:44.749Z,0
2018-09-02T00:36:46.177Z,0
2018-09-02T00:37:47.597Z,0
2018-09-02T00:38:49.020Z,0
2018-09-02T00:39:50.536Z,0
2018-09-02T00:40:51.999Z,0
2018-09-02T00:41:53.439Z,0
2018-09-02T00:42:54.882Z,0
2018-09-02T00:43:56.290Z,0
2018-09-02T00:44:57.779Z,0
2018-09-02T00:45:59.216Z,0
2018-09-02T00:47:00.679Z,0
2018-09-02T00:48:02.110Z,0
2018-09-02T00:49:03.502Z,0
2018-09-02T00:50:04.922Z,0
2018-09-02T00:51:06.366Z,0
2018-09-02T00:52:07.768Z,0
2018-09-02T00:53:09.178Z,0
2018-09-02T00:54:10.614Z,0
2018-09-02T00:55:12.078Z,0
2018-09-02T00:56:13.486Z,0
2018-09-02T00:57:14.932Z,0
2018-09-02T00:58:16.398Z,0
2018-09-02T00:59:17.833Z,0
2018-09-02T01:00:19.369Z,0
2018-09-02T01:01:20.854Z,0
2018-09-02T01:02:22.258Z,0
2018-09-02T01:03:23.684Z,0
2018-09-02T01:04:25.129Z,0
2018-09-02T01:05:26.533Z,0
2018-09-02T01:06:27.943Z,0
2018-09-02T01:07:29.399Z,0
2018-09-02T01:08:30.801Z,0
2018-09-02T01:09:32.189Z,0
2018-09-02T01:10:33.629Z,0
2018-09-02T01:11:35.102Z,0
2018-09-02T01:12:36.505Z,0
2018-09-02T01:13:37.963Z,0
2018-09-02T01:14:39.391Z,0
2018-09-02T01:15:40.811Z,0
2018-09-02T01:16:42.248Z,0
2018-09-02T01:17:43.724Z,0
2018-09-02T01:18:45.112Z,0
2018-09-02T01:19:46.506Z,0
2018-09-02T01:20:47.934Z,0
2018-09-02T01:21:49.279Z,0
2018-09-02T01:22:50.764Z,0
2018-09-02T01:23:52.147Z,0
2018-09-02T01:24:53.622Z,0
2018-09-02T01:25:55.074Z,0
2018-09-02T01:26:56.466Z,0
2018-09-02T01:27:57.904Z,0
2018-09-02T01:28:59.349Z,0
2018-09-02T01:30:00.744Z,0
2018-09-02T01:31:02.190Z,0
2018-09-02T01:32:03.633Z,0
2018-09-02T01:33:05.048Z,0
2018-09-02T01:34:06.439Z,0
2018-09-02T01:35:07.894Z,0
2018-09-02T01:36:09.287Z,0
2018-09-02T01:37:10.724Z,0
2018-09-02T01:38:12.200Z,0
2018-09-02T01:39:13.640Z,0
2018-09-02T01:40:15.080Z,0
2018-09-02T01:41:16.514Z,0
2018-09-02T01:42:17.919Z,0
2018-09-02T01:43:19.344Z,0
2018-09-02T01:44:20.733Z,0
2018-09-02T01:45:22.232Z,0
2018-09-02T01:46:23.640Z,0
2018-09-02T01:47:25.093Z,0
2018-09-02T01:48:26.556Z,0
2018-09-02T01:49:28.021Z,0
2018-09-02T01:50:29.430Z,0
2018-09-02T01:51:30.916Z,0
2018-09-02T01:52:32.377Z,0
2018-09-02T01:53:33.847Z,0
2018-09-02T01:54:35.256Z,0
2018-09-02T01:55:36.643Z,0
2018-09-02T01:56:38.116Z,0
2018-09-02T01:57:39.565Z,0
2018-09-02T01:58:40.954Z,4
2018-09-02T01:59:42.398Z,0
2018-09-02T02:00:43.848Z,0
2018-09-02T02:01:45.324Z,0
2018-09-02T02:02:46.734Z,4
2018-09-02T02:03:48.182Z,0
2018-09-02T02:04:49.626Z,0
2018-09-02T02:05:51.101Z,0
2018-09-02T02:06:52.572Z,0
2018-09-02T02:07:54.031Z,0
2018-09-02T02:08:55.514Z,0
2018-09-02T02:09:56.905Z,0
2018-09-02T02:10:58.301Z,0
2018-09-02T02:11:59.758Z,0
2018-09-02T02:13:01.233Z,0
2018-09-02T02:14:02.716Z,0
2018-09-02T02:15:04.132Z,0
2018-09-02T02:16:05.572Z,0
2018-09-02T02:17:06.969Z,0
2018-09-02T02:18:08.416Z,0
2018-09-02T02:19:09.832Z,0
2018-09-02T02:20:11.286Z,0
2018-09-02T02:21:12.639Z,0
2018-09-02T02:22:14.046Z,0
2018-09-02T02:23:15.510Z,0
2018-09-02T02:24:16.917Z,0
2018-09-02T02:25:18.369Z,0
2018-09-02T02:26:19.786Z,0
2018-09-02T02:27:21.377Z,0
2018-09-02T02:28:22.830Z,0
2018-09-02T02:29:24.331Z,0
2018-09-02T02:30:25.780Z,0
2018-09-02T02:31:27.231Z,0
2018-09-02T02:32:28.623Z,0
2018-09-02T02:33:30.011Z,0
2018-09-02T02:34:31.466Z,0
2018-09-02T02:35:32.854Z,0
2018-09-02T02:36:34.234Z,0
2018-09-02T02:37:35.691Z,0
2018-09-02T02:38:37.117Z,0
2018-09-02T02:39:38.510Z,0
2018-09-02T02:40:39.893Z,0
2018-09-02T02:41:41.345Z,0
2018-09-02T02:42:42.784Z,0
2018-09-02T02:43:44.197Z,0
2018-09-02T02:44:45.603Z,0
2018-09-02T02:45:47.065Z,0
2018-09-02T02:46:48.545Z,0
2018-09-02T02:47:49.928Z,0
2018-09-02T02:48:51.409Z,0
2018-09-02T02:49:52.856Z,0
2018-09-02T02:50:54.280Z,0
2018-09-02T02:51:55.736Z,0
2018-09-02T02:52:57.170Z,0
2018-09-02T02:53:58.576Z,0
2018-09-02T02:54:59.969Z,0
2018-09-02T02:56:01.452Z,0
2018-09-02T02:57:02.956Z,0
2018-09-02T02:58:04.411Z,0
2018-09-02T02:59:05.749Z,0
2018-09-02T03:00:07.142Z,0
2018-09-02T03:01:08.528Z,0
2018-09-02T03:02:09.919Z,0
2018-09-02T03:03:11.392Z,0
2018-09-02T03:04:12.802Z,0
2018-09-02T03:05:14.197Z,0
2018-09-02T03:06:15.609Z,0
2018-09-02T03:07:17.070Z,0
2018-09-02T03:08:18.503Z,0
2018-09-02T03:09:19.947Z,0
2018-09-02T03:10:21.391Z,0
2018-09-02T03:11:22.784Z,0
2018-09-02T03:12:24.286Z,0
2018-09-02T03:13:25.686Z,0
2018-09-02T03:14:27.161Z,0
2018-09-02T03:15:28.625Z,0
2018-09-02T03:16:30.017Z,0
2018-09-02T03:17:31.454Z,0
2018-09-02T03:18:32.909Z,0
2018-09-02T03:19:34.362Z,0
2018-09-02T03:20:35.750Z,0
2018-09-02T03:21:37.185Z,0
2018-09-02T03:22:38.575Z,0
2018-09-02T03:23:39.927Z,0
2018-09-02T03:24:41.318Z,0
2018-09-02T03:25:42.706Z,0
2018-09-02T03:26:44.180Z,0
2018-09-02T03:27:45.592Z,0
2018-09-02T03:28:47.027Z,0
2018-09-02T03:29:48.433Z,0
2018-09-02T03:30:49.828Z,0
2018-09-02T03:31:51.275Z,0
2018-09-02T03:32:52.656Z,0
2018-09-02T03:33:54.049Z,0
2018-09-02T03:34:55.494Z,0
2018-09-02T03:35:56.978Z,0
2018-09-02T03:36:58.385Z,0
2018-09-02T03:37:59.827Z,0
2018-09-02T03:39:01.213Z,0
2018-09-02T03:40:02.575Z,0
2018-09-02T03:41:04.051Z,0
2018-09-02T03:42:05.438Z,0
2018-09-02T03:43:06.868Z,0
2018-09-02T03:44:08.366Z,0
2018-09-02T03:45:09.815Z,0
2018-09-02T03:46:11.264Z,0
2018-09-02T03:47:12.708Z,0
2018-09-02T03:48:14.151Z,0
2018-09-02T03:49:15.582Z,0
2018-09-02T03:50:17.021Z,0
2018-09-02T03:51:18.531Z,0
2018-09-02T03:52:19.914Z,0
2018-09-02T03:53:21.397Z,0
2018-09-02T03:54:22.842Z,0
2018-09-02T03:55:24.283Z,0
2018-09-02T03:56:25.680Z,0
2018-09-02T03:57:27.130Z,0
2018-09-02T03:58:28.594Z,0
2018-09-02T03:59:30.088Z,0
2018-09-02T04:00:31.590Z,0
2018-09-02T04:01:33.019Z,0
2018-09-02T04:02:34.495Z,0
2018-09-02T04:03:35.916Z,0
2018-09-02T04:04:37.317Z,0
2018-09-02T04:05:38.728Z,0
2018-09-02T04:06:40.119Z,0
2018-09-02T04:07:41.573Z,0
2018-09-02T04:08:43.007Z,0
2018-09-02T04:09:44.463Z,0
2018-09-02T04:10:45.897Z,0
2018-09-02T04:11:47.294Z,0
2018-09-02T04:12:48.782Z,0
2018-09-02T04:13:50.259Z,0
2018-09-02T04:14:51.693Z,0
2018-09-02T04:15:53.149Z,0
2018-09-02T04:16:54.536Z,0
2018-09-02T04:17:55.946Z,0
2018-09-02T04:18:57.429Z,0
2018-09-02T04:19:58.876Z,0
2018-09-02T04:21:00.316Z,0
2018-09-02T04:22:01.759Z,0
2018-09-02T04:23:03.123Z,0
2018-09-02T04:24:04.557Z,4
2018-09-02T04:25:05.997Z,4
2018-09-02T04:26:07.388Z,0
2018-09-02T04:27:08.844Z,0
2018-09-02T04:28:10.280Z,4
2018-09-02T04:29:11.722Z,4
2018-09-02T04:30:13.108Z,4
2018-09-02T04:31:14.578Z,4
2018-09-02T04:32:16.085Z,4
2018-09-02T04:33:17.479Z,8
2018-09-02T04:34:18.937Z,8
2018-09-02T04:35:20.330Z,8
2018-09-02T04:36:21.787Z,8
2018-09-02T04:37:23.186Z,16
2018-09-02T04:38:24.668Z,16
2018-09-02T04:39:26.143Z,16
2018-09-02T04:40:27.563Z,24
2018-09-02T04:41:28.960Z,24
2018-09-02T04:42:30.358Z,28
2018-09-02T04:43:31.795Z,32
2018-09-02T04:44:33.411Z,36
2018-09-02T04:45:34.826Z,40
2018-09-02T04:46:36.326Z,44
2018-09-02T04:47:37.754Z,48
2018-09-02T04:48:39.180Z,52
2018-09-02T04:49:40.586Z,56
2018-09-02T04:50:42.055Z,64
2018-09-02T04:51:43.507Z,72
2018-09-02T04:52:45.030Z,76
2018-09-02T04:53:46.330Z,84
2018-09-02T04:54:47.787Z,88
2018-09-02T04:55:49.218Z,96
2018-09-02T04:56:50.687Z,104
2018-09-02T04:57:52.064Z,112
2018-09-02T04:58:53.542Z,120
2018-09-02T04:59:55.033Z,124
2018-09-02T05:00:56.456Z,136
2018-09-02T05:01:57.916Z,144
2018-09-02T05:02:59.270Z,152
2018-09-02T05:04:00.719Z,160
2018-09-02T05:05:02.102Z,168
2018-09-02T05:06:03.537Z,180
2018-09-02T05:07:04.931Z,188
2018-09-02T05:08:06.378Z,196
2018-09-02T05:09:07.775Z,204
2018-09-02T05:10:09.208Z,212
2018-09-02T05:11:10.622Z,224
2018-09-02T05:12:12.064Z,236
2018-09-02T05:13:13.528Z,248
2018-09-02T05:14:15.013Z,256
2018-09-02T05:15:16.417Z,264
2018-09-02T05:16:17.883Z,276
2018-09-02T05:17:19.361Z,288
2018-09-02T05:18:20.842Z,300
2018-09-02T05:19:22.321Z,312
2018-09-02T05:20:23.833Z,324
2018-09-02T05:21:25.291Z,336
2018-09-02T05:22:26.682Z,348
2018-09-02T05:23:28.159Z,360
2018-09-02T05:24:29.624Z,372
2018-09-02T05:25:31.043Z,384
2018-09-02T05:26:32.434Z,392
2018-09-02T05:27:33.848Z,404
2018-09-02T05:28:35.415Z,412
2018-09-02T05:29:36.843Z,424
2018-09-02T05:30:38.259Z,436
2018-09-02T05:31:39.701Z,460
2018-09-02T05:32:41.142Z,480
2018-09-02T05:33:42.623Z,500
2018-09-02T05:34:44.081Z,512
2018-09-02T05:35:45.465Z,536
2018-09-02T05:36:46.957Z,568
2018-09-02T05:37:48.335Z,580
2018-09-02T05:38:49.760Z,576
2018-09-02T05:39:51.192Z,580
2018-09-02T05:40:52.594Z,584
2018-09-02T05:41:54.007Z,584
2018-09-02T05:42:55.545Z,592
2018-09-02T05:43:57.025Z,592
2018-09-02T05:44:58.482Z,596
2018-09-02T05:45:59.942Z,596
2018-09-02T05:47:01.325Z,600
2018-09-02T05:48:02.818Z,604
2018-09-02T05:49:04.207Z,612
2018-09-02T05:50:05.682Z,616
2018-09-02T05:51:07.110Z,624
2018-09-02T05:52:08.561Z,632
2018-09-02T05:53:10.056Z,640
2018-09-02T05:54:11.462Z,652
2018-09-02T05:55:12.924Z,656
2018-09-02T05:56:14.390Z,664
2018-09-02T05:57:15.796Z,676
2018-09-02T05:58:17.227Z,684
2018-09-02T05:59:18.661Z,692
2018-09-02T06:00:20.053Z,704
2018-09-02T06:01:21.466Z,716
2018-09-02T06:02:22.858Z,724
2018-09-02T06:03:24.315Z,736
2018-09-02T06:04:25.847Z,744
2018-09-02T06:05:27.330Z,756
2018-09-02T06:06:28.679Z,760
2018-09-02T06:07:30.068Z,772
2018-09-02T06:08:31.519Z,780
2018-09-02T06:09:33.013Z,792
2018-09-02T06:10:34.468Z,800
2018-09-02T06:11:35.875Z,808
2018-09-02T06:12:37.366Z,816
2018-09-02T06:13:38.801Z,824
2018-09-02T06:14:40.221Z,832
2018-09-02T06:15:41.725Z,840
2018-09-02T06:16:43.206Z,848
2018-09-02T06:17:44.594Z,856
2018-09-02T06:18:46.020Z,864
2018-09-02T06:19:47.491Z,876
2018-09-02T06:20:48.988Z,884
2018-09-02T06:21:50.399Z,892
2018-09-02T06:22:51.831Z,900
2018-09-02T06:23:53.291Z,912
2018-09-02T06:24:54.779Z,920
2018-09-02T06:25:56.201Z,932
2018-09-02T06:26:57.964Z,936
2018-09-02T06:27:59.393Z,944
2018-09-02T06:29:00.789Z,948
2018-09-02T06:30:02.311Z,956
2018-09-02T06:31:03.644Z,972
2018-09-02T06:32:05.103Z,984
2018-09-02T06:33:06.583Z,992
2018-09-02T06:34:08.036Z,1000
2018-09-02T06:35:09.445Z,1012
2018-09-02T06:36:10.936Z,1024
2018-09-02T06:37:12.375Z,1032
2018-09-02T06:38:13.810Z,1044
2018-09-02T06:39:15.238Z,1060
2018-09-02T06:40:16.675Z,1072
2018-09-02T06:41:18.144Z,1084
2018-09-02T06:42:19.589Z,1096
2018-09-02T06:43:20.986Z,1108
2018-09-02T06:44:22.408Z,1120
2018-09-02T06:45:23.872Z,1128
2018-09-02T06:46:25.339Z,1136
2018-09-02T06:47:26.790Z,1144
2018-09-02T06:48:28.229Z,1152
2018-09-02T06:49:29.658Z,1160
2018-09-02T06:50:31.103Z,1168
2018-09-02T06:51:32.551Z,1172
2018-09-02T06:52:33.967Z,1180
2018-09-02T06:53:35.424Z,1188
2018-09-02T06:54:36.902Z,1192
2018-09-02T06:55:38.440Z,1200
2018-09-02T06:56:39.952Z,1204
2018-09-02T06:57:41.369Z,1208
2018-09-02T06:58:42.857Z,1220
2018-09-02T06:59:44.204Z,1220
2018-09-02T07:00:45.706Z,1228
2018-09-02T07:01:47.215Z,1232
2018-09-02T07:02:48.653Z,1236
2018-09-02T07:03:50.097Z,1244
2018-09-02T07:04:51.577Z,1248
2018-09-02T07:05:52.995Z,1256
2018-09-02T07:06:54.402Z,1268
2018-09-02T07:07:55.846Z,1276
2018-09-02T07:08:57.268Z,1284
2018-09-02T07:09:58.684Z,1296
2018-09-02T07:11:00.162Z,1312
2018-09-02T07:12:01.593Z,1316
2018-09-02T07:13:03.013Z,1328
2018-09-02T07:14:04.460Z,1340
2018-09-02T07:15:06.454Z,1340
2018-09-02T07:16:07.869Z,1348
2018-09-02T07:17:09.917Z,1356
2018-09-02T07:18:11.860Z,1360
2018-09-02T07:19:13.307Z,1356
2018-09-02T07:20:14.903Z,1368
2018-09-02T07:21:16.425Z,1384
2018-09-02T07:22:17.894Z,1396
2018-09-02T07:23:19.345Z,1404
2018-09-02T07:24:20.776Z,1412
2018-09-02T07:25:22.217Z,1424
2018-09-02T07:26:23.624Z,1432
2018-09-02T07:27:25.124Z,1448
2018-09-02T07:28:26.519Z,1464
2018-09-02T07:29:27.939Z,1480
2018-09-02T07:30:29.362Z,1496
2018-09-02T07:31:30.955Z,1508
2018-09-02T07:32:32.310Z,1520
2018-09-02T07:33:33.703Z,1540
2018-09-02T07:34:35.165Z,1548
2018-09-02T07:35:36.627Z,1572
2018-09-02T07:36:38.094Z,1616
2018-09-02T07:37:39.579Z,1628
2018-09-02T07:38:41.073Z,1632
2018-09-02T07:39:42.464Z,1628
2018-09-02T07:40:43.931Z,1636
2018-09-02T07:41:45.427Z,1648
2018-09-02T07:42:46.852Z,1664
2018-09-02T07:43:48.413Z,1688
2018-09-02T07:44:49.846Z,1712
2018-09-02T07:45:51.346Z,1732
2018-09-02T07:46:52.817Z,1764
2018-09-02T07:47:54.217Z,1868
2018-09-02T07:48:55.673Z,2056
2018-09-02T07:49:57.114Z,2088
2018-09-02T07:50:58.525Z,2168
2018-09-02T07:51:59.984Z,2236
2018-09-02T07:53:01.469Z,2356
2018-09-02T07:54:02.924Z,2384
2018-09-02T07:55:04.386Z,2504
2018-09-02T07:56:05.843Z,2480
2018-09-02T07:57:07.356Z,2528
2018-09-02T07:58:08.689Z,2456
2018-09-02T07:59:10.082Z,2744
2018-09-02T08:00:11.539Z,2856
2018-09-02T08:01:12.996Z,2976
2018-09-02T08:02:14.296Z,3048
2018-09-02T08:03:15.991Z,3268
2018-09-02T08:04:17.391Z,3352
2018-09-02T08:05:18.835Z,3436
2018-09-02T08:06:20.246Z,3436
2018-09-02T08:07:21.694Z,3360
2018-09-02T08:08:23.100Z,3196
2018-09-02T08:09:24.576Z,2976
2018-09-02T08:10:26.008Z,2804
2018-09-02T08:11:27.462Z,2740
2018-09-02T08:12:28.967Z,2756
2018-09-02T08:13:30.370Z,2800
2018-09-02T08:14:31.781Z,2944
2018-09-02T08:15:33.245Z,3144
2018-09-02T08:16:34.717Z,3268
2018-09-02T08:17:36.156Z,2840
2018-09-02T08:18:37.780Z,3072
2018-09-02T08:19:39.246Z,3216
2018-09-02T08:20:40.729Z,3144
2018-09-02T08:21:42.234Z,3140
2018-09-02T08:22:43.655Z,3172
2018-09-02T08:23:45.141Z,3216
2018-09-02T08:24:46.544Z,3304
2018-09-02T08:25:48.018Z,3384
2018-09-02T08:26:49.398Z,3476
2018-09-02T08:27:50.799Z,3532
2018-09-02T08:28:52.197Z,3576
2018-09-02T08:29:53.655Z,3620
2018-09-02T08:30:55.075Z,3644
2018-09-02T08:31:56.572Z,3672
2018-09-02T08:32:58.936Z,3688
2018-09-02T08:34:00.305Z,3760
2018-09-02T08:35:01.945Z,3816
2018-09-02T08:36:03.381Z,3860
2018-09-02T08:37:04.792Z,3896
2018-09-02T08:38:06.205Z,3916
2018-09-02T08:39:07.654Z,3960
2018-09-02T08:40:09.073Z,3976
2018-09-02T08:41:10.509Z,4008
2018-09-02T08:42:11.907Z,4036
2018-09-02T08:43:13.323Z,4072
2018-09-02T08:44:14.798Z,4108
2018-09-02T08:45:16.267Z,4140
2018-09-02T08:46:17.752Z,4188
2018-09-02T08:47:19.147Z,4224
2018-09-02T08:48:20.540Z,4256
2018-09-02T08:49:21.939Z,4312
2018-09-02T08:50:23.436Z,4344
2018-09-02T08:51:24.779Z,4392
2018-09-02T08:52:26.190Z,4424
2018-09-02T08:53:27.599Z,4468
2018-09-02T08:54:29.022Z,4544
2018-09-02T08:55:30.464Z,4592
2018-09-02T08:56:32.181Z,4632
2018-09-02T08:57:33.597Z,4688
2018-09-02T08:58:35.274Z,4736
2018-09-02T08:59:36.835Z,4800
2018-09-02T09:00:38.369Z,4836
2018-09-02T09:01:39.802Z,4884
2018-09-02T09:02:41.175Z,4932
2018-09-02T09:03:42.765Z,4980
2018-09-02T09:04:44.166Z,5044
2018-09-02T09:05:45.599Z,5116
2018-09-02T09:06:46.976Z,5180
2018-09-02T09:07:48.694Z,5248
2018-09-02T09:08:50.050Z,5308
2018-09-02T09:09:51.200Z,5368
2018-09-02T09:10:52.746Z,5412
2018-09-02T09:11:54.185Z,5480
2018-09-02T09:12:55.719Z,5556
2018-09-02T09:13:57.184Z,5600
2018-09-02T09:14:58.665Z,5648
2018-09-02T09:16:00.266Z,5684
2018-09-02T09:17:01.803Z,5696
2018-09-02T09:18:03.165Z,5744
2018-09-02T09:19:04.668Z,5772
2018-09-02T09:20:06.146Z,5812
2018-09-02T09:21:07.569Z,5852
2018-09-02T09:22:09.012Z,5880
2018-09-02T09:23:10.437Z,5940
2018-09-02T09:24:11.974Z,6008
2018-09-02T09:25:13.459Z,6076
2018-09-02T09:26:14.897Z,6156
2018-09-02T09:27:16.305Z,6208
2018-09-02T09:28:17.760Z,6268
2018-09-02T09:29:19.157Z,6364
2018-09-02T09:30:20.639Z,6440
2018-09-02T09:31:22.078Z,6504
2018-09-02T09:32:23.643Z,6564
2018-09-02T09:33:25.071Z,6648
2018-09-02T09:34:26.470Z,6760
2018-09-02T09:35:28.108Z,6840
2018-09-02T09:36:29.687Z,6924
2018-09-02T09:37:31.139Z,7008
2018-09-02T09:38:32.658Z,7064
2018-09-02T09:39:34.121Z,7148
2018-09-02T09:40:35.727Z,7236
2018-09-02T09:41:37.421Z,7304
2018-09-02T09:42:38.816Z,7392
2018-09-02T09:43:40.236Z,7480
2018-09-02T09:44:41.701Z,7596
2018-09-02T09:45:43.102Z,7680
2018-09-02T09:46:44.517Z,7800
2018-09-02T09:47:45.961Z,7920
2018-09-02T09:48:47.405Z,8028
2018-09-02T09:49:48.849Z,8128
2018-09-02T09:50:50.311Z,8228
2018-09-02T09:51:52.554Z,8356
2018-09-02T09:52:54.100Z,8448
2018-09-02T09:53:55.675Z,8564
2018-09-02T09:54:57.130Z,8724
2018-09-02T09:55:58.659Z,8868
2018-09-02T09:57:00.300Z,8964
2018-09-02T09:58:01.749Z,9048
2018-09-02T09:59:03.164Z,9200
2018-09-02T10:00:04.723Z,9260
2018-09-02T10:01:06.271Z,9396
2018-09-02T10:02:07.947Z,9532
2018-09-02T10:03:09.413Z,9616
2018-09-02T10:04:10.856Z,9772
2018-09-02T10:05:12.361Z,9800
2018-09-02T10:06:13.855Z,10012
2018-09-02T10:07:15.285Z,10160
2018-09-02T10:08:16.716Z,10328
2018-09-02T10:09:18.165Z,10388
2018-09-02T10:10:19.581Z,10584
2018-09-02T10:11:20.954Z,10744
2018-09-02T10:12:22.391Z,10940
2018-09-02T10:13:23.855Z,11024
2018-09-02T10:14:25.256Z,11208
2018-09-02T10:15:26.720Z,11380
2018-09-02T10:16:28.149Z,11592
2018-09-02T10:17:29.654Z,11768
2018-09-02T10:18:31.127Z,11928
2018-09-02T10:19:32.525Z,12112
2018-09-02T10:20:33.973Z,12344
2018-09-02T10:21:35.435Z,12576
2018-09-02T10:22:37.165Z,12872
2018-09-02T10:23:38.785Z,13052
2018-09-02T10:24:40.287Z,13192
2018-09-02T10:25:41.727Z,13524
2018-09-02T10:26:43.237Z,13612
2018-09-02T10:27:44.869Z,14136
2018-09-02T10:28:46.365Z,14784
2018-09-02T10:29:47.875Z,14292
2018-09-02T10:30:49.453Z,14380
2018-09-02T10:31:50.899Z,14596
2018-09-02T10:32:52.347Z,14916
2018-09-02T10:33:53.905Z,15184
2018-09-02T10:34:55.350Z,15572
2018-09-02T10:35:56.813Z,11884
2018-09-02T10:36:58.363Z,13704
2018-09-02T10:37:59.901Z,15872
2018-09-02T10:39:01.394Z,16128
2018-09-02T10:40:02.959Z,16192
2018-09-02T10:41:04.548Z,16256
2018-09-02T10:42:05.933Z,15904
2018-09-02T10:43:07.376Z,7008
2018-09-02T10:44:08.877Z,9688
2018-09-02T10:45:10.399Z,15772
2018-09-02T10:46:11.786Z,15872
2018-09-02T10:47:13.322Z,16192
2018-09-02T10:48:14.833Z,16192
2018-09-02T10:49:16.363Z,4276
2018-09-02T10:50:17.834Z,11852
2018-09-02T10:51:19.321Z,16800
2018-09-02T10:52:20.879Z,16832
2018-09-02T10:53:22.363Z,16096
2018-09-02T10:54:23.799Z,5840
2018-09-02T10:55:25.406Z,16544
2018-09-02T10:56:27.437Z,16800
2018-09-02T10:57:28.911Z,17088
2018-09-02T10:58:30.384Z,16320
2018-09-02T10:59:32.046Z,5060
2018-09-02T11:00:33.445Z,4072
2018-09-02T11:01:35.161Z,5132
2018-09-02T11:02:36.613Z,4140
2018-09-02T11:03:38.222Z,3484
2018-09-02T11:04:39.665Z,3784
2018-09-02T11:05:41.134Z,17152
2018-09-02T11:06:42.608Z,17312
2018-09-02T11:07:44.063Z,17088
2018-09-02T11:08:45.563Z,16896
2018-09-02T11:09:46.988Z,16992
2018-09-02T11:10:48.429Z,17184
2018-09-02T11:11:49.920Z,17696
2018-09-02T11:12:51.350Z,17184
2018-09-02T11:13:52.997Z,17408
2018-09-02T11:14:54.501Z,6816
2018-09-02T11:15:55.971Z,16064
2018-09-02T11:16:57.408Z,17696
2018-09-02T11:17:58.924Z,18016
2018-09-02T11:19:00.339Z,17952
2018-09-02T11:20:01.796Z,17952
2018-09-02T11:21:03.215Z,5284
2018-09-02T11:22:05.093Z,15616
2018-09-02T11:23:06.522Z,18496
2018-09-02T11:24:07.998Z,18752
2018-09-02T11:25:09.420Z,18144
2018-09-02T11:26:10.826Z,17888
2018-09-02T11:27:12.471Z,18240
2018-09-02T11:28:13.941Z,18720
2018-09-02T11:29:15.378Z,18560
2018-09-02T11:30:16.811Z,17632
2018-09-02T11:31:18.264Z,19136
2018-09-02T11:32:19.787Z,18016
2018-09-02T11:33:21.286Z,19328
2018-09-02T11:34:22.778Z,5156
2018-09-02T11:35:24.256Z,18624
2018-09-02T11:36:25.786Z,19872
2018-09-02T11:37:27.297Z,20000
2018-09-02T11:38:28.747Z,19616
2018-09-02T11:39:30.192Z,19744
2018-09-02T11:40:31.743Z,19520
2018-09-02T11:41:33.196Z,19936
2018-09-02T11:42:34.804Z,20416
2018-09-02T11:43:36.323Z,20704
2018-09-02T11:44:37.828Z,19648
2018-09-02T11:45:39.195Z,20544
2018-09-02T11:46:40.652Z,20288
2018-09-02T11:47:42.123Z,21440
2018-09-02T11:48:43.600Z,21760
2018-09-02T11:49:45.056Z,11612
2018-09-02T11:50:46.476Z,5780
2018-09-02T11:51:48.051Z,12564
2018-09-02T11:52:49.481Z,12812
2018-09-02T11:53:50.941Z,20096
2018-09-02T11:54:52.371Z,17472
2018-09-02T11:55:53.942Z,7528
2018-09-02T11:56:55.396Z,3900
2018-09-02T11:57:56.871Z,4084
2018-09-02T11:58:58.464Z,4388
2018-09-02T11:59:59.933Z,4368
2018-09-02T12:01:01.333Z,4328
2018-09-02T12:02:02.826Z,4448
2018-09-02T12:03:04.313Z,4704
2018-09-02T12:04:05.840Z,6796
2018-09-02T12:05:07.220Z,5476
2018-09-02T12:06:08.643Z,5060
2018-09-02T12:07:10.090Z,5036
2018-09-02T12:08:11.532Z,19520
2018-09-02T12:09:12.993Z,20128
2018-09-02T12:10:14.404Z,20928
2018-09-02T12:11:15.944Z,20416
2018-09-02T12:12:17.350Z,18688
2018-09-02T12:13:18.789Z,6912
2018-09-02T12:14:20.223Z,7312
2018-09-02T12:15:21.665Z,9456
2018-09-02T12:16:23.081Z,5776
2018-09-02T12:17:24.556Z,5592
2018-09-02T12:18:25.981Z,6628
2018-09-02T12:19:27.446Z,5132
2018-09-02T12:20:28.919Z,5828
2018-09-02T12:21:30.356Z,4264
2018-09-02T12:22:31.800Z,4056
2018-09-02T12:23:33.246Z,4052
2018-09-02T12:24:34.931Z,4024
2018-09-02T12:25:36.398Z,3904
2018-09-02T12:26:37.870Z,3816
2018-09-02T12:27:39.331Z,3844
2018-09-02T12:28:40.741Z,4068
2018-09-02T12:29:42.251Z,4496
2018-09-02T12:30:43.722Z,4284
2018-09-02T12:31:45.204Z,4508
2018-09-02T12:32:46.705Z,4632
2018-09-02T12:33:48.207Z,4876
2018-09-02T12:34:49.612Z,4652
2018-09-02T12:35:51.059Z,4540
2018-09-02T12:36:52.468Z,4552
2018-09-02T12:37:53.892Z,4892
2018-09-02T12:38:55.419Z,5008
2018-09-02T12:39:56.888Z,5224
2018-09-02T12:40:58.287Z,8192
2018-09-02T12:41:59.695Z,6348
2018-09-02T12:43:01.101Z,6284
2018-09-02T12:44:02.549Z,6608
2018-09-02T12:45:03.976Z,6160
2018-09-02T12:46:05.484Z,6156
2018-09-02T12:47:06.921Z,6668
2018-09-02T12:48:08.420Z,7656
2018-09-02T12:49:09.859Z,8556
2018-09-02T12:50:11.316Z,6992
2018-09-02T12:51:12.812Z,5808
2018-09-02T12:52:14.238Z,5344
2018-09-02T12:53:15.668Z,3956
2018-09-02T12:54:17.154Z,2952
2018-09-02T12:55:18.597Z,2520
2018-09-02T12:56:20.039Z,2196
2018-09-02T12:57:21.429Z,1952
2018-09-02T12:58:22.852Z,1780
2018-09-02T12:59:24.278Z,1664
2018-09-02T13:00:25.752Z,1652
2018-09-02T13:01:27.163Z,1688
2018-09-02T13:02:28.595Z,1792
2018-09-02T13:03:30.018Z,1960
2018-09-02T13:04:31.520Z,2060
2018-09-02T13:05:32.916Z,2112
2018-09-02T13:06:34.404Z,2208
2018-09-02T13:07:35.891Z,2244
2018-09-02T13:08:37.362Z,2136
2018-09-02T13:09:38.817Z,2084
2018-09-02T13:10:40.243Z,2076
2018-09-02T13:11:41.675Z,1980
2018-09-02T13:12:43.194Z,1852
2018-09-02T13:13:44.508Z,1772
2018-09-02T13:14:45.960Z,1716
2018-09-02T13:15:47.470Z,1716
2018-09-02T13:16:48.917Z,1764
2018-09-02T13:17:50.315Z,1796
2018-09-02T13:18:51.826Z,1772
2018-09-02T13:19:53.175Z,1680
2018-09-02T13:20:54.593Z,1608
2018-09-02T13:21:55.982Z,1568
2018-09-02T13:22:57.443Z,1592
2018-09-02T13:23:59.034Z,1656
2018-09-02T13:25:00.467Z,1732
2018-09-02T13:26:01.914Z,1756
2018-09-02T13:27:03.488Z,1724
2018-09-02T13:28:04.928Z,1664
2018-09-02T13:29:06.359Z,1568
2018-09-02T13:30:07.818Z,1504
2018-09-02T13:31:09.241Z,1444
2018-09-02T13:32:10.666Z,1400
2018-09-02T13:33:12.060Z,1352
2018-09-02T13:34:13.490Z,1296
2018-09-02T13:35:14.985Z,1244
2018-09-02T13:36:16.557Z,1216
2018-09-02T13:37:17.967Z,1200
2018-09-02T13:38:19.371Z,1212
2018-09-02T13:39:20.851Z,1256
2018-09-02T13:40:22.367Z,1312
2018-09-02T13:41:23.710Z,1376
2018-09-02T13:42:25.135Z,1428
2018-09-02T13:43:26.577Z,1476
2018-09-02T13:44:28.081Z,1528
2018-09-02T13:45:29.560Z,1568
2018-09-02T13:46:30.996Z,1592
2018-09-02T13:47:32.489Z,1608
2018-09-02T13:48:34.001Z,1624
2018-09-02T13:49:35.440Z,1660
2018-09-02T13:50:37.035Z,1684
2018-09-02T13:51:38.671Z,1696
2018-09-02T13:52:40.048Z,1748
2018-09-02T13:53:41.469Z,1800
2018-09-02T13:54:43.059Z,1868
2018-09-02T13:55:44.380Z,1964
2018-09-02T13:56:45.868Z,2104
2018-09-02T13:57:47.309Z,2232
2018-09-02T13:58:48.761Z,2324
2018-09-02T13:59:50.407Z,2364
2018-09-02T14:00:51.682Z,2408
2018-09-02T14:01:53.081Z,2460
2018-09-02T14:02:54.549Z,2468
2018-09-02T14:03:56.012Z,2428
2018-09-02T14:04:57.509Z,2372
2018-09-02T14:05:59.001Z,2348
2018-09-02T14:07:00.432Z,2332